Crookston, Minnesota
Current Conditions -  °F | °C
As of 12:55 AM on Thursday 27 Nov 2014 (Local Time) from KCKN Reporting Station
Clear Clear  
Wind Chill: -11°   Ceiling: Unl
Heat Index: -11°   Visibility: 10mi
Dew Point: -17°   Wind: 3mph
Humidity: 77%   Direction: 300°WNW
Pressure: 30.57"   Gusts: NA
Location:  47.77°N, 96.61°W
Report Text: KCKN 270655Z AUTO 30003KT 10SM CLR M24/M27 A3057 RMK AO2
Loading
Personal Weather Stations






























Interactive Weather Map New forecast layout! Learn more

10-Day Weather Forecast

Advertisements
Track Severe Weather on mobile